sensor_id;sensor_type;location;lat;lon;timestamp;P1;durP1;ratioP1;P2;durP2;ratioP2
10939;SDS011;5522;42.696;23.494;2023-11-19T00:01:46;0.40;;;0.40;;
10939;SDS011;5522;42.696;23.494;2023-11-19T00:04:13;0.50;;;0.50;;
10939;SDS011;5522;42.696;23.494;2023-11-19T00:06:40;0.50;;;0.50;;
10939;SDS011;5522;42.696;23.494;2023-11-19T00:09:07;1.67;;;0.50;;
10939;SDS011;5522;42.696;23.494;2023-11-19T00:11:34;0.77;;;0.50;;
10939;SDS011;5522;42.696;23.494;2023-11-19T00:14:02;1.15;;;0.50;;
10939;SDS011;5522;42.696;23.494;2023-11-19T00:16:33;0.57;;;0.50;;
10939;SDS011;5522;42.696;23.494;2023-11-19T00:19:00;0.50;;;0.50;;
10939;SDS011;5522;42.696;23.494;2023-11-19T00:21:27;2.78;;;0.50;;
10939;SDS011;5522;42.696;23.494;2023-11-19T00:23:56;0.43;;;0.40;;
10939;SDS011;5522;42.696;23.494;2023-11-19T00:26:23;0.50;;;0.50;;
10939;SDS011;5522;42.696;23.494;2023-11-19T00:28:50;0.82;;;0.60;;
10939;SDS011;5522;42.696;23.494;2023-11-19T00:31:19;0.60;;;0.60;;
10939;SDS011;5522;42.696;23.494;2023-11-19T00:33:46;0.80;;;0.60;;
10939;SDS011;5522;42.696;23.494;2023-11-19T00:36:13;0.57;;;0.57;;
10939;SDS011;5522;42.696;23.494;2023-11-19T00:38:39;0.75;;;0.50;;
10939;SDS011;5522;42.696;23.494;2023-11-19T00:41:06;0.47;;;0.47;;
10939;SDS011;5522;42.696;23.494;2023-11-19T00:43:33;0.40;;;0.40;;
10939;SDS011;5522;42.696;23.494;2023-11-19T00:46:01;0.50;;;0.50;;
10939;SDS011;5522;42.696;23.494;2023-11-19T00:48:29;0.40;;;0.40;;
10939;SDS011;5522;42.696;23.494;2023-11-19T00:50:57;0.43;;;0.43;;
10939;SDS011;5522;42.696;23.494;2023-11-19T00:53:23;0.65;;;0.50;;
10939;SDS011;5522;42.696;23.494;2023-11-19T00:55:52;1.10;;;0.50;;
10939;SDS011;5522;42.696;23.494;2023-11-19T00:58:18;0.55;;;0.55;;
10939;SDS011;5522;42.696;23.494;2023-11-19T01:00:45;2.05;;;0.57;;
10939;SDS011;5522;42.696;23.494;2023-11-19T01:03:12;0.45;;;0.45;;
10939;SDS011;5522;42.696;23.494;2023-11-19T01:05:42;0.50;;;0.50;;
10939;SDS011;5522;42.696;23.494;2023-11-19T01:08:09;0.60;;;0.60;;
10939;SDS011;5522;42.696;23.494;2023-11-19T01:10:36;0.60;;;0.60;;
10939;SDS011;5522;42.696;23.494;2023-11-19T01:13:03;0.75;;;0.60;;
10939;SDS011;5522;42.696;23.494;2023-11-19T01:15:32;0.57;;;0.57;;
10939;SDS011;5522;42.696;23.494;2023-11-19T01:17:59;0.50;;;0.50;;
10939;SDS011;5522;42.696;23.494;2023-11-19T01:23:03;0.50;;;0.50;;
10939;SDS011;5522;42.696;23.494;2023-11-19T01:25:30;0.70;;;0.38;;
10939;SDS011;5522;42.696;23.494;2023-11-19T01:27:57;0.50;;;0.50;;
10939;SDS011;5522;42.696;23.494;2023-11-19T01:30:24;0.47;;;0.40;;
10939;SDS011;5522;42.696;23.494;2023-11-19T01:32:51;3.08;;;0.40;;
10939;SDS011;5522;42.696;23.494;2023-11-19T01:35:18;0.32;;;0.32;;
10939;SDS011;5522;42.696;23.494;2023-11-19T01:37:45;0.40;;;0.40;;
10939;SDS011;5522;42.696;23.494;2023-11-19T01:40:13;0.40;;;0.40;;
10939;SDS011;5522;42.696;23.494;2023-11-19T01:42:44;0.40;;;0.40;;
10939;SDS011;5522;42.696;23.494;2023-11-19T01:45:11;0.73;;;0.50;;
10939;SDS011;5522;42.696;23.494;2023-11-19T01:47:49;0.40;;;0.40;;
10939;SDS011;5522;42.696;23.494;2023-11-19T01:50:17;0.40;;;0.40;;
10939;SDS011;5522;42.696;23.494;2023-11-19T01:52:44;0.45;;;0.45;;
10939;SDS011;5522;42.696;23.494;2023-11-19T01:55:14;0.50;;;0.50;;
10939;SDS011;5522;42.696;23.494;2023-11-19T01:57:41;1.20;;;0.50;;
10939;SDS011;5522;42.696;23.494;2023-11-19T02:00:08;0.40;;;0.40;;
10939;SDS011;5522;42.696;23.494;2023-11-19T02:02:37;1.85;;;0.40;;
10939;SDS011;5522;42.696;23.494;2023-11-19T02:05:05;0.98;;;0.40;;
10939;SDS011;5522;42.696;23.494;2023-11-19T02:07:32;1.95;;;0.43;;
10939;SDS011;5522;42.696;23.494;2023-11-19T02:09:59;0.40;;;0.40;;
10939;SDS011;5522;42.696;23.494;2023-11-19T02:12:29;3.08;;;0.45;;
10939;SDS011;5522;42.696;23.494;2023-11-19T02:14:57;0.95;;;0.55;;
10939;SDS011;5522;42.696;23.494;2023-11-19T02:17:27;0.50;;;0.50;;
10939;SDS011;5522;42.696;23.494;2023-11-19T02:19:56;2.05;;;0.63;;
10939;SDS011;5522;42.696;23.494;2023-11-19T02:22:23;0.40;;;0.40;;
10939;SDS011;5522;42.696;23.494;2023-11-19T02:24:51;0.47;;;0.47;;
10939;SDS011;5522;42.696;23.494;2023-11-19T02:27:23;1.38;;;0.40;;
10939;SDS011;5522;42.696;23.494;2023-11-19T02:29:58;1.95;;;0.50;;
10939;SDS011;5522;42.696;23.494;2023-11-19T02:32:27;0.45;;;0.45;;
10939;SDS011;5522;42.696;23.494;2023-11-19T02:34:55;0.50;;;0.50;;
10939;SDS011;5522;42.696;23.494;2023-11-19T02:37:22;0.50;;;0.50;;
10939;SDS011;5522;42.696;23.494;2023-11-19T02:39:49;2.90;;;0.40;;
10939;SDS011;5522;42.696;23.494;2023-11-19T02:42:16;0.88;;;0.40;;
10939;SDS011;5522;42.696;23.494;2023-11-19T02:44:43;1.38;;;0.50;;
10939;SDS011;5522;42.696;23.494;2023-11-19T02:47:12;0.50;;;0.50;;
10939;SDS011;5522;42.696;23.494;2023-11-19T02:49:39;1.20;;;0.40;;
10939;SDS011;5522;42.696;23.494;2023-11-19T02:52:07;0.45;;;0.45;;
10939;SDS011;5522;42.696;23.494;2023-11-19T02:54:35;0.40;;;0.40;;
10939;SDS011;5522;42.696;23.494;2023-11-19T02:57:02;0.40;;;0.40;;
10939;SDS011;5522;42.696;23.494;2023-11-19T02:59:30;0.50;;;0.50;;
10939;SDS011;5522;42.696;23.494;2023-11-19T03:02:04;1.88;;;0.50;;
10939;SDS011;5522;42.696;23.494;2023-11-19T03:04:33;0.50;;;0.50;;
10939;SDS011;5522;42.696;23.494;2023-11-19T03:07:00;0.98;;;0.40;;
10939;SDS011;5522;42.696;23.494;2023-11-19T03:09:27;0.43;;;0.43;;
10939;SDS011;5522;42.696;23.494;2023-11-19T03:11:54;1.85;;;0.50;;
10939;SDS011;5522;42.696;23.494;2023-11-19T03:14:21;1.02;;;0.40;;
10939;SDS011;5522;42.696;23.494;2023-11-19T03:16:49;0.50;;;0.50;;
10939;SDS011;5522;42.696;23.494;2023-11-19T03:19:16;0.50;;;0.50;;
10939;SDS011;5522;42.696;23.494;2023-11-19T03:21:44;0.50;;;0.50;;
10939;SDS011;5522;42.696;23.494;2023-11-19T03:24:13;0.50;;;0.50;;
10939;SDS011;5522;42.696;23.494;2023-11-19T03:26:40;0.50;;;0.50;;
10939;SDS011;5522;42.696;23.494;2023-11-19T03:29:08;0.40;;;0.40;;
10939;SDS011;5522;42.696;23.494;2023-11-19T03:31:35;0.40;;;0.40;;
10939;SDS011;5522;42.696;23.494;2023-11-19T03:34:01;2.13;;;0.50;;
10939;SDS011;5522;42.696;23.494;2023-11-19T03:36:31;1.00;;;0.47;;
10939;SDS011;5522;42.696;23.494;2023-11-19T03:39:00;1.90;;;0.50;;
10939;SDS011;5522;42.696;23.494;2023-11-19T03:41:28;0.50;;;0.50;;
10939;SDS011;5522;42.696;23.494;2023-11-19T03:43:55;0.40;;;0.40;;
10939;SDS011;5522;42.696;23.494;2023-11-19T03:46:22;0.35;;;0.35;;
10939;SDS011;5522;42.696;23.494;2023-11-19T03:48:49;0.40;;;0.40;;
10939;SDS011;5522;42.696;23.494;2023-11-19T03:51:16;0.40;;;0.40;;
10939;SDS011;5522;42.696;23.494;2023-11-19T03:53:43;1.15;;;0.40;;
10939;SDS011;5522;42.696;23.494;2023-11-19T03:56:11;0.50;;;0.50;;
10939;SDS011;5522;42.696;23.494;2023-11-19T03:58:38;0.40;;;0.40;;
10939;SDS011;5522;42.696;23.494;2023-11-19T04:01:06;0.40;;;0.40;;
10939;SDS011;5522;42.696;23.494;2023-11-19T04:03:37;0.47;;;0.40;;
10939;SDS011;5522;42.696;23.494;2023-11-19T04:06:04;0.50;;;0.50;;
10939;SDS011;5522;42.696;23.494;2023-11-19T04:08:32;0.45;;;0.43;;
10939;SDS011;5522;42.696;23.494;2023-11-19T04:10:59;0.40;;;0.40;;
10939;SDS011;5522;42.696;23.494;2023-11-19T04:13:28;0.40;;;0.40;;
10939;SDS011;5522;42.696;23.494;2023-11-19T04:15:55;0.52;;;0.52;;
10939;SDS011;5522;42.696;23.494;2023-11-19T04:18:22;0.30;;;0.30;;
10939;SDS011;5522;42.696;23.494;2023-11-19T04:20:49;0.40;;;0.40;;
10939;SDS011;5522;42.696;23.494;2023-11-19T04:23:16;0.50;;;0.50;;
10939;SDS011;5522;42.696;23.494;2023-11-19T04:25:43;0.40;;;0.40;;
10939;SDS011;5522;42.696;23.494;2023-11-19T04:28:09;0.95;;;0.50;;
10939;SDS011;5522;42.696;23.494;2023-11-19T04:30:37;0.40;;;0.40;;
10939;SDS011;5522;42.696;23.494;2023-11-19T04:33:04;0.50;;;0.50;;
10939;SDS011;5522;42.696;23.494;2023-11-19T04:35:31;1.63;;;0.55;;
10939;SDS011;5522;42.696;23.494;2023-11-19T04:37:58;0.40;;;0.40;;
10939;SDS011;5522;42.696;23.494;2023-11-19T04:40:25;0.50;;;0.50;;
10939;SDS011;5522;42.696;23.494;2023-11-19T04:42:52;2.05;;;0.60;;
10939;SDS011;5522;42.696;23.494;2023-11-19T04:45:18;0.55;;;0.50;;
10939;SDS011;5522;42.696;23.494;2023-11-19T04:47:50;0.70;;;0.70;;
10939;SDS011;5522;42.696;23.494;2023-11-19T04:50:16;0.75;;;0.60;;
10939;SDS011;5522;42.696;23.494;2023-11-19T04:52:44;0.68;;;0.60;;
10939;SDS011;5522;42.696;23.494;2023-11-19T04:55:12;0.60;;;0.60;;
10939;SDS011;5522;42.696;23.494;2023-11-19T04:57:39;0.50;;;0.50;;
10939;SDS011;5522;42.696;23.494;2023-11-19T05:00:06;0.60;;;0.60;;
10939;SDS011;5522;42.696;23.494;2023-11-19T05:02:36;0.50;;;0.50;;
10939;SDS011;5522;42.696;23.494;2023-11-19T05:05:04;0.93;;;0.60;;
10939;SDS011;5522;42.696;23.494;2023-11-19T05:07:32;1.50;;;0.65;;
10939;SDS011;5522;42.696;23.494;2023-11-19T05:09:59;1.13;;;0.60;;
10939;SDS011;5522;42.696;23.494;2023-11-19T05:12:26;0.50;;;0.50;;
10939;SDS011;5522;42.696;23.494;2023-11-19T05:14:53;0.43;;;0.40;;
10939;SDS011;5522;42.696;23.494;2023-11-19T05:17:19;0.47;;;0.40;;
10939;SDS011;5522;42.696;23.494;2023-11-19T05:19:46;0.52;;;0.52;;
10939;SDS011;5522;42.696;23.494;2023-11-19T05:22:15;0.60;;;0.60;;
10939;SDS011;5522;42.696;23.494;2023-11-19T05:24:41;0.70;;;0.70;;
10939;SDS011;5522;42.696;23.494;2023-11-19T05:27:08;0.50;;;0.50;;
10939;SDS011;5522;42.696;23.494;2023-11-19T05:29:36;0.73;;;0.68;;
10939;SDS011;5522;42.696;23.494;2023-11-19T05:32:04;0.90;;;0.80;;
10939;SDS011;5522;42.696;23.494;2023-11-19T05:34:33;1.75;;;1.02;;
10939;SDS011;5522;42.696;23.494;2023-11-19T05:37:00;0.80;;;0.80;;
10939;SDS011;5522;42.696;23.494;2023-11-19T05:39:28;0.50;;;0.50;;
10939;SDS011;5522;42.696;23.494;2023-11-19T05:41:55;0.93;;;0.60;;
10939;SDS011;5522;42.696;23.494;2023-11-19T05:44:22;0.40;;;0.40;;
10939;SDS011;5522;42.696;23.494;2023-11-19T05:46:49;0.40;;;0.40;;
10939;SDS011;5522;42.696;23.494;2023-11-19T05:49:15;0.50;;;0.50;;
10939;SDS011;5522;42.696;23.494;2023-11-19T05:51:43;0.70;;;0.70;;
10939;SDS011;5522;42.696;23.494;2023-11-19T05:54:11;0.60;;;0.60;;
10939;SDS011;5522;42.696;23.494;2023-11-19T05:56:40;0.70;;;0.60;;
10939;SDS011;5522;42.696;23.494;2023-11-19T05:59:07;1.63;;;1.00;;
10939;SDS011;5522;42.696;23.494;2023-11-19T06:01:40;0.40;;;0.40;;
10939;SDS011;5522;42.696;23.494;2023-11-19T06:04:07;0.73;;;0.50;;
10939;SDS011;5522;42.696;23.494;2023-11-19T06:06:35;0.57;;;0.57;;
10939;SDS011;5522;42.696;23.494;2023-11-19T06:09:02;0.52;;;0.50;;
10939;SDS011;5522;42.696;23.494;2023-11-19T06:11:31;0.50;;;0.50;;
10939;SDS011;5522;42.696;23.494;2023-11-19T06:14:00;0.60;;;0.60;;
10939;SDS011;5522;42.696;23.494;2023-11-19T06:16:27;0.50;;;0.50;;
10939;SDS011;5522;42.696;23.494;2023-11-19T06:18:54;1.05;;;0.57;;
10939;SDS011;5522;42.696;23.494;2023-11-19T06:21:20;0.60;;;0.60;;
10939;SDS011;5522;42.696;23.494;2023-11-19T06:23:47;0.40;;;0.40;;
10939;SDS011;5522;42.696;23.494;2023-11-19T06:26:16;0.50;;;0.50;;
10939;SDS011;5522;42.696;23.494;2023-11-19T06:28:43;0.50;;;0.50;;
10939;SDS011;5522;42.696;23.494;2023-11-19T06:31:13;0.60;;;0.60;;
10939;SDS011;5522;42.696;23.494;2023-11-19T06:33:41;0.40;;;0.40;;
10939;SDS011;5522;42.696;23.494;2023-11-19T06:36:08;0.50;;;0.50;;
10939;SDS011;5522;42.696;23.494;2023-11-19T06:38:35;0.50;;;0.50;;
10939;SDS011;5522;42.696;23.494;2023-11-19T06:41:05;0.50;;;0.50;;
10939;SDS011;5522;42.696;23.494;2023-11-19T06:43:33;0.60;;;0.60;;
10939;SDS011;5522;42.696;23.494;2023-11-19T06:46:00;1.20;;;0.50;;
10939;SDS011;5522;42.696;23.494;2023-11-19T06:48:29;0.60;;;0.60;;
10939;SDS011;5522;42.696;23.494;2023-11-19T06:50:57;1.40;;;0.60;;
10939;SDS011;5522;42.696;23.494;2023-11-19T06:53:24;1.95;;;0.50;;
10939;SDS011;5522;42.696;23.494;2023-11-19T06:55:53;0.60;;;0.60;;
10939;SDS011;5522;42.696;23.494;2023-11-19T06:58:19;1.65;;;0.50;;
10939;SDS011;5522;42.696;23.494;2023-11-19T07:00:46;0.70;;;0.65;;
10939;SDS011;5522;42.696;23.494;2023-11-19T07:03:14;3.15;;;0.60;;
10939;SDS011;5522;42.696;23.494;2023-11-19T07:05:43;0.63;;;0.57;;
10939;SDS011;5522;42.696;23.494;2023-11-19T07:08:09;0.65;;;0.60;;
10939;SDS011;5522;42.696;23.494;2023-11-19T07:10:36;0.60;;;0.50;;
10939;SDS011;5522;42.696;23.494;2023-11-19T07:13:03;1.95;;;0.60;;
10939;SDS011;5522;42.696;23.494;2023-11-19T07:15:31;0.85;;;0.50;;
10939;SDS011;5522;42.696;23.494;2023-11-19T07:17:58;0.50;;;0.50;;
10939;SDS011;5522;42.696;23.494;2023-11-19T07:20:28;0.70;;;0.70;;
10939;SDS011;5522;42.696;23.494;2023-11-19T07:23:00;0.82;;;0.82;;
10939;SDS011;5522;42.696;23.494;2023-11-19T07:25:27;1.55;;;0.57;;
10939;SDS011;5522;42.696;23.494;2023-11-19T07:27:54;0.60;;;0.60;;
10939;SDS011;5522;42.696;23.494;2023-11-19T07:30:22;0.60;;;0.60;;
10939;SDS011;5522;42.696;23.494;2023-11-19T07:32:48;0.70;;;0.60;;
10939;SDS011;5522;42.696;23.494;2023-11-19T07:35:15;0.80;;;0.80;;
10939;SDS011;5522;42.696;23.494;2023-11-19T07:37:43;0.50;;;0.50;;
10939;SDS011;5522;42.696;23.494;2023-11-19T07:40:12;0.47;;;0.47;;
10939;SDS011;5522;42.696;23.494;2023-11-19T07:42:39;0.65;;;0.65;;
10939;SDS011;5522;42.696;23.494;2023-11-19T07:45:06;0.55;;;0.55;;
10939;SDS011;5522;42.696;23.494;2023-11-19T07:47:34;2.70;;;0.60;;
10939;SDS011;5522;42.696;23.494;2023-11-19T07:50:00;1.20;;;0.95;;
10939;SDS011;5522;42.696;23.494;2023-11-19T07:52:27;0.70;;;0.70;;
10939;SDS011;5522;42.696;23.494;2023-11-19T07:54:55;2.22;;;0.70;;
10939;SDS011;5522;42.696;23.494;2023-11-19T07:57:23;0.75;;;0.75;;
10939;SDS011;5522;42.696;23.494;2023-11-19T07:59:52;0.70;;;0.70;;
10939;SDS011;5522;42.696;23.494;2023-11-19T08:02:23;0.60;;;0.60;;
10939;SDS011;5522;42.696;23.494;2023-11-19T08:04:50;1.55;;;0.50;;
10939;SDS011;5522;42.696;23.494;2023-11-19T08:07:20;0.68;;;0.68;;
10939;SDS011;5522;42.696;23.494;2023-11-19T08:09:47;0.68;;;0.68;;
10939;SDS011;5522;42.696;23.494;2023-11-19T08:12:14;1.55;;;0.70;;
10939;SDS011;5522;42.696;23.494;2023-11-19T08:14:44;0.60;;;0.60;;
10939;SDS011;5522;42.696;23.494;2023-11-19T08:17:10;0.85;;;0.85;;
10939;SDS011;5522;42.696;23.494;2023-11-19T08:19:38;4.85;;;2.28;;
10939;SDS011;5522;42.696;23.494;2023-11-19T08:22:05;1.73;;;0.90;;
10939;SDS011;5522;42.696;23.494;2023-11-19T08:24:34;0.80;;;0.80;;
10939;SDS011;5522;42.696;23.494;2023-11-19T08:27:01;0.80;;;0.80;;
10939;SDS011;5522;42.696;23.494;2023-11-19T08:29:28;0.63;;;0.40;;
10939;SDS011;5522;42.696;23.494;2023-11-19T08:31:56;1.85;;;0.50;;
10939;SDS011;5522;42.696;23.494;2023-11-19T08:34:23;0.40;;;0.40;;
10939;SDS011;5522;42.696;23.494;2023-11-19T08:36:50;0.40;;;0.40;;
10939;SDS011;5522;42.696;23.494;2023-11-19T08:39:18;0.50;;;0.40;;
10939;SDS011;5522;42.696;23.494;2023-11-19T08:41:46;0.40;;;0.40;;
10939;SDS011;5522;42.696;23.494;2023-11-19T08:44:13;0.43;;;0.43;;
10939;SDS011;5522;42.696;23.494;2023-11-19T08:46:45;1.55;;;0.50;;
10939;SDS011;5522;42.696;23.494;2023-11-19T08:49:14;0.47;;;0.40;;
10939;SDS011;5522;42.696;23.494;2023-11-19T08:51:41;0.45;;;0.45;;
10939;SDS011;5522;42.696;23.494;2023-11-19T08:54:08;0.60;;;0.50;;
10939;SDS011;5522;42.696;23.494;2023-11-19T08:56:35;0.50;;;0.50;;
10939;SDS011;5522;42.696;23.494;2023-11-19T08:59:04;2.08;;;0.90;;
10939;SDS011;5522;42.696;23.494;2023-11-19T09:01:31;0.52;;;0.52;;
10939;SDS011;5522;42.696;23.494;2023-11-19T09:03:58;0.50;;;0.50;;
10939;SDS011;5522;42.696;23.494;2023-11-19T09:06:26;0.65;;;0.52;;
10939;SDS011;5522;42.696;23.494;2023-11-19T09:08:53;0.50;;;0.50;;
10939;SDS011;5522;42.696;23.494;2023-11-19T09:11:23;1.95;;;0.60;;
10939;SDS011;5522;42.696;23.494;2023-11-19T09:13:50;0.50;;;0.50;;
10939;SDS011;5522;42.696;23.494;2023-11-19T09:16:17;0.40;;;0.40;;
10939;SDS011;5522;42.696;23.494;2023-11-19T09:18:44;0.40;;;0.40;;
10939;SDS011;5522;42.696;23.494;2023-11-19T09:21:11;0.65;;;0.50;;
10939;SDS011;5522;42.696;23.494;2023-11-19T09:23:39;2.25;;;0.52;;
10939;SDS011;5522;42.696;23.494;2023-11-19T09:26:07;1.35;;;0.60;;
10939;SDS011;5522;42.696;23.494;2023-11-19T09:28:35;0.50;;;0.50;;
10939;SDS011;5522;42.696;23.494;2023-11-19T09:31:02;0.52;;;0.50;;
10939;SDS011;5522;42.696;23.494;2023-11-19T09:33:29;0.40;;;0.40;;
10939;SDS011;5522;42.696;23.494;2023-11-19T09:35:56;0.50;;;0.40;;
10939;SDS011;5522;42.696;23.494;2023-11-19T09:38:23;5.18;;;0.40;;
10939;SDS011;5522;42.696;23.494;2023-11-19T09:40:52;3.20;;;0.50;;
10939;SDS011;5522;42.696;23.494;2023-11-19T09:43:25;0.95;;;0.70;;
10939;SDS011;5522;42.696;23.494;2023-11-19T09:45:54;0.40;;;0.40;;
10939;SDS011;5522;42.696;23.494;2023-11-19T09:48:22;0.30;;;0.30;;
10939;SDS011;5522;42.696;23.494;2023-11-19T09:50:51;0.63;;;0.40;;
10939;SDS011;5522;42.696;23.494;2023-11-19T09:53:18;1.65;;;0.40;;
10939;SDS011;5522;42.696;23.494;2023-11-19T09:55:46;0.50;;;0.50;;
10939;SDS011;5522;42.696;23.494;2023-11-19T09:58:14;0.50;;;0.50;;
10939;SDS011;5522;42.696;23.494;2023-11-19T10:00:41;0.40;;;0.40;;
10939;SDS011;5522;42.696;23.494;2023-11-19T10:03:09;0.57;;;0.40;;
10939;SDS011;5522;42.696;23.494;2023-11-19T10:05:38;0.45;;;0.40;;
10939;SDS011;5522;42.696;23.494;2023-11-19T10:08:05;0.40;;;0.40;;
10939;SDS011;5522;42.696;23.494;2023-11-19T10:10:33;0.50;;;0.50;;
10939;SDS011;5522;42.696;23.494;2023-11-19T10:12:59;0.50;;;0.50;;
10939;SDS011;5522;42.696;23.494;2023-11-19T10:15:31;2.05;;;0.88;;
10939;SDS011;5522;42.696;23.494;2023-11-19T10:18:03;1.15;;;0.70;;
10939;SDS011;5522;42.696;23.494;2023-11-19T10:20:36;0.60;;;0.60;;
10939;SDS011;5522;42.696;23.494;2023-11-19T10:23:05;1.48;;;0.50;;
10939;SDS011;5522;42.696;23.494;2023-11-19T10:25:33;0.93;;;0.50;;
10939;SDS011;5522;42.696;23.494;2023-11-19T10:28:02;0.55;;;0.55;;
10939;SDS011;5522;42.696;23.494;2023-11-19T10:30:34;1.00;;;0.95;;
10939;SDS011;5522;42.696;23.494;2023-11-19T10:33:07;2.03;;;0.50;;
10939;SDS011;5522;42.696;23.494;2023-11-19T10:35:35;0.40;;;0.40;;
10939;SDS011;5522;42.696;23.494;2023-11-19T10:38:13;0.60;;;0.60;;
10939;SDS011;5522;42.696;23.494;2023-11-19T10:40:41;0.55;;;0.50;;
10939;SDS011;5522;42.696;23.494;2023-11-19T10:43:08;0.40;;;0.40;;
10939;SDS011;5522;42.696;23.494;2023-11-19T10:45:37;0.82;;;0.50;;
10939;SDS011;5522;42.696;23.494;2023-11-19T10:48:05;0.68;;;0.68;;
10939;SDS011;5522;42.696;23.494;2023-11-19T10:50:33;0.30;;;0.30;;
10939;SDS011;5522;42.696;23.494;2023-11-19T10:53:02;0.50;;;0.50;;
10939;SDS011;5522;42.696;23.494;2023-11-19T10:55:33;0.40;;;0.40;;
10939;SDS011;5522;42.696;23.494;2023-11-19T10:58:02;0.50;;;0.50;;
10939;SDS011;5522;42.696;23.494;2023-11-19T11:00:37;1.25;;;0.82;;
10939;SDS011;5522;42.696;23.494;2023-11-19T11:03:15;0.73;;;0.50;;
10939;SDS011;5522;42.696;23.494;2023-11-19T11:05:46;0.50;;;0.50;;
10939;SDS011;5522;42.696;23.494;2023-11-19T11:08:14;0.43;;;0.43;;
10939;SDS011;5522;42.696;23.494;2023-11-19T11:10:42;1.15;;;0.50;;
10939;SDS011;5522;42.696;23.494;2023-11-19T11:13:11;1.08;;;0.38;;
10939;SDS011;5522;42.696;23.494;2023-11-19T11:15:41;1.65;;;0.40;;
10939;SDS011;5522;42.696;23.494;2023-11-19T11:18:12;0.40;;;0.40;;
10939;SDS011;5522;42.696;23.494;2023-11-19T11:20:44;0.50;;;0.50;;
10939;SDS011;5522;42.696;23.494;2023-11-19T11:23:17;0.85;;;0.50;;
10939;SDS011;5522;42.696;23.494;2023-11-19T11:26:03;0.40;;;0.40;;
10939;SDS011;5522;42.696;23.494;2023-11-19T11:28:48;0.40;;;0.40;;
10939;SDS011;5522;42.696;23.494;2023-11-19T11:31:29;0.47;;;0.47;;
10939;SDS011;5522;42.696;23.494;2023-11-19T11:34:12;0.40;;;0.40;;
10939;SDS011;5522;42.696;23.494;2023-11-19T11:36:53;1.95;;;0.50;;
10939;SDS011;5522;42.696;23.494;2023-11-19T11:39:32;0.50;;;0.50;;
10939;SDS011;5522;42.696;23.494;2023-11-19T11:45:00;0.85;;;0.40;;
10939;SDS011;5522;42.696;23.494;2023-11-19T11:50:47;0.50;;;0.50;;
10939;SDS011;5522;42.696;23.494;2023-11-19T11:53:17;2.20;;;0.50;;
10939;SDS011;5522;42.696;23.494;2023-11-19T11:55:57;0.90;;;0.70;;
10939;SDS011;5522;42.696;23.494;2023-11-19T11:58:29;0.40;;;0.40;;
10939;SDS011;5522;42.696;23.494;2023-11-19T12:01:03;2.38;;;0.40;;
10939;SDS011;5522;42.696;23.494;2023-11-19T12:03:33;0.40;;;0.38;;
10939;SDS011;5522;42.696;23.494;2023-11-19T12:06:00;0.50;;;0.50;;
10939;SDS011;5522;42.696;23.494;2023-11-19T12:08:29;0.40;;;0.40;;
10939;SDS011;5522;42.696;23.494;2023-11-19T12:11:01;0.30;;;0.30;;
10939;SDS011;5522;42.696;23.494;2023-11-19T12:13:47;0.50;;;0.50;;
10939;SDS011;5522;42.696;23.494;2023-11-19T12:16:23;0.50;;;0.50;;
10939;SDS011;5522;42.696;23.494;2023-11-19T12:18:54;0.75;;;0.60;;
10939;SDS011;5522;42.696;23.494;2023-11-19T12:21:33;2.50;;;0.50;;
10939;SDS011;5522;42.696;23.494;2023-11-19T12:24:05;0.70;;;0.70;;
10939;SDS011;5522;42.696;23.494;2023-11-19T12:26:37;0.40;;;0.40;;
10939;SDS011;5522;42.696;23.494;2023-11-19T12:29:05;0.40;;;0.30;;
10939;SDS011;5522;42.696;23.494;2023-11-19T12:31:33;0.50;;;0.50;;
10939;SDS011;5522;42.696;23.494;2023-11-19T12:34:06;1.25;;;0.50;;
10939;SDS011;5522;42.696;23.494;2023-11-19T12:36:36;0.68;;;0.68;;
10939;SDS011;5522;42.696;23.494;2023-11-19T12:39:04;0.40;;;0.40;;
10939;SDS011;5522;42.696;23.494;2023-11-19T12:41:33;0.63;;;0.63;;
10939;SDS011;5522;42.696;23.494;2023-11-19T12:44:17;0.80;;;0.50;;
10939;SDS011;5522;42.696;23.494;2023-11-19T12:46:44;0.75;;;0.55;;
10939;SDS011;5522;42.696;23.494;2023-11-19T12:49:14;1.73;;;0.82;;
10939;SDS011;5522;42.696;23.494;2023-11-19T12:51:41;0.88;;;0.88;;
10939;SDS011;5522;42.696;23.494;2023-11-19T12:54:11;0.60;;;0.60;;
10939;SDS011;5522;42.696;23.494;2023-11-19T12:56:40;0.60;;;0.52;;
10939;SDS011;5522;42.696;23.494;2023-11-19T12:59:17;0.68;;;0.68;;
10939;SDS011;5522;42.696;23.494;2023-11-19T13:01:53;0.60;;;0.60;;
10939;SDS011;5522;42.696;23.494;2023-11-19T13:04:22;0.63;;;0.63;;
10939;SDS011;5522;42.696;23.494;2023-11-19T13:06:50;2.20;;;0.57;;
10939;SDS011;5522;42.696;23.494;2023-11-19T13:09:22;1.95;;;0.68;;
10939;SDS011;5522;42.696;23.494;2023-11-19T13:11:50;0.95;;;0.52;;
10939;SDS011;5522;42.696;23.494;2023-11-19T13:14:17;1.00;;;1.00;;
10939;SDS011;5522;42.696;23.494;2023-11-19T13:16:47;1.73;;;0.80;;
10939;SDS011;5522;42.696;23.494;2023-11-19T13:19:14;0.70;;;0.60;;
10939;SDS011;5522;42.696;23.494;2023-11-19T13:21:45;0.98;;;0.70;;
10939;SDS011;5522;42.696;23.494;2023-11-19T13:24:13;0.80;;;0.80;;
10939;SDS011;5522;42.696;23.494;2023-11-19T13:26:40;2.88;;;1.08;;
10939;SDS011;5522;42.696;23.494;2023-11-19T13:29:07;0.63;;;0.63;;
10939;SDS011;5522;42.696;23.494;2023-11-19T13:31:35;1.77;;;0.77;;
10939;SDS011;5522;42.696;23.494;2023-11-19T13:34:02;0.52;;;0.52;;
10939;SDS011;5522;42.696;23.494;2023-11-19T13:36:37;1.05;;;0.60;;
10939;SDS011;5522;42.696;23.494;2023-11-19T13:39:05;2.78;;;0.90;;
10939;SDS011;5522;42.696;23.494;2023-11-19T13:41:32;0.60;;;0.60;;
10939;SDS011;5522;42.696;23.494;2023-11-19T13:43:59;2.60;;;0.75;;
10939;SDS011;5522;42.696;23.494;2023-11-19T13:46:26;0.90;;;0.90;;
10939;SDS011;5522;42.696;23.494;2023-11-19T13:48:53;1.52;;;1.30;;
10939;SDS011;5522;42.696;23.494;2023-11-19T13:51:20;0.80;;;0.80;;
10939;SDS011;5522;42.696;23.494;2023-11-19T13:53:49;0.90;;;0.90;;
10939;SDS011;5522;42.696;23.494;2023-11-19T13:56:24;0.85;;;0.75;;
10939;SDS011;5522;42.696;23.494;2023-11-19T13:58:50;0.70;;;0.70;;
10939;SDS011;5522;42.696;23.494;2023-11-19T14:01:18;3.92;;;0.95;;
10939;SDS011;5522;42.696;23.494;2023-11-19T14:03:45;1.83;;;1.02;;
10939;SDS011;5522;42.696;23.494;2023-11-19T14:06:16;1.63;;;0.70;;
10939;SDS011;5522;42.696;23.494;2023-11-19T14:08:43;2.95;;;1.20;;
10939;SDS011;5522;42.696;23.494;2023-11-19T14:11:11;1.30;;;0.90;;
10939;SDS011;5522;42.696;23.494;2023-11-19T14:13:39;3.30;;;1.60;;
10939;SDS011;5522;42.696;23.494;2023-11-19T14:16:08;2.05;;;1.52;;
10939;SDS011;5522;42.696;23.494;2023-11-19T14:18:37;1.67;;;1.08;;
10939;SDS011;5522;42.696;23.494;2023-11-19T14:21:06;3.70;;;1.02;;
10939;SDS011;5522;42.696;23.494;2023-11-19T14:23:35;1.10;;;0.90;;
10939;SDS011;5522;42.696;23.494;2023-11-19T14:26:04;1.88;;;0.80;;
10939;SDS011;5522;42.696;23.494;2023-11-19T14:28:32;3.25;;;0.88;;
10939;SDS011;5522;42.696;23.494;2023-11-19T14:31:01;1.45;;;1.35;;
10939;SDS011;5522;42.696;23.494;2023-11-19T14:33:38;1.67;;;1.58;;
10939;SDS011;5522;42.696;23.494;2023-11-19T14:36:05;3.30;;;1.02;;
10939;SDS011;5522;42.696;23.494;2023-11-19T14:38:32;1.20;;;1.10;;
10939;SDS011;5522;42.696;23.494;2023-11-19T14:41:05;3.17;;;1.30;;
10939;SDS011;5522;42.696;23.494;2023-11-19T14:43:36;1.13;;;1.00;;
10939;SDS011;5522;42.696;23.494;2023-11-19T14:46:07;1.40;;;0.82;;
10939;SDS011;5522;42.696;23.494;2023-11-19T14:48:34;0.90;;;0.90;;
10939;SDS011;5522;42.696;23.494;2023-11-19T14:51:01;1.23;;;1.13;;
10939;SDS011;5522;42.696;23.494;2023-11-19T14:53:32;3.47;;;1.25;;
10939;SDS011;5522;42.696;23.494;2023-11-19T14:55:59;1.23;;;1.05;;
10939;SDS011;5522;42.696;23.494;2023-11-19T14:58:28;3.72;;;1.30;;
10939;SDS011;5522;42.696;23.494;2023-11-19T15:00:58;2.05;;;0.90;;
10939;SDS011;5522;42.696;23.494;2023-11-19T15:03:27;1.52;;;1.20;;
10939;SDS011;5522;42.696;23.494;2023-11-19T15:05:54;2.15;;;1.13;;